Etusivu
METAR-TAF:

METAR-TAF

Lentoasemat :

Pocatello Regional Airport

Pocatello, Idaho, Yhdysvallat

Leveyspiiri: 42-55-13N, Pituuspiiri: 112-34-16W, korkeus merenpinnasta: 1356 m

Tämänhetkinen sää

Tämä raportti tehtiin 53 minuuttia sitten, kello 16.53 UTC
Tuuli 5 kn lännestä
Lämpötila 6°C
Kosteus 42%
Ilmanpaine 1022 hPa
Näkyvyys: 16.1 km
Muutamia pilviä 3600 ft:n korkeudessa

METAR: KPIH 131653Z 28005KT 10SM FEW036 06/M06 A3018 RMK AO2 SLP215 T00611056

Aika: 10:46 (17:46 UTC)

Sääennuste

Tämä raportti tehtiin 26 minuuttia sitten, kello 17.20 UTC
Ennuste voimassa 13. päivästä klo 18 UTC - 14. päivään klo 18 UTC
Tuuli 8 kn lännestä
Näkyvyys: 10 km
Muutamia pilviä 3500 ft:n korkeudessa
Hajanaisia pilviä 15000 ft:n korkeudessa
From 14. päivästä klo 0200 UTC
Tuuli 5 kn eri suunnista
Näkyvyys: 10 km
Hajanaisia pilviä 15000 ft:n korkeudessa

TAF: KPIH 131720Z 1318/1418 28008KT P6SM FEW035 SCT150 FM140200 VRB05KT P6SM SCT150

Säähavainnot ja -ennusteet yli 4000 lentoasemalta (METAR- ja TAF-raportit).

Käytössä olevat sääasemat on merkitty karttaan keltaisilla ja punaisilla pisteillä.

Aseta hiiri pisteen päälle nähdäksesi sääaseman nimen.

Klikkaa sitten nähdäksesi säähavainnot ja -ennusteet.

Kartan vaihtaminen: klikkaa mustalla rastilla varustettuja vihreitä pisteitä, niin voit zoomata sisään; viivalla varustettua vihreää pistettä, niin voit zoomata ulos tai vihreitä nuolia, niin pääset viereisille kartoille.


METAR-TAF: